ROC weather

Greater Rochester International Airport
Rochester, New York, United States

Public forecast

Using degrees Fahrenheit for public forecast. Weather courtesy of forecast.io.

Current aviation weather report (METAR) for Greater Rochester International Airport

Retrieved 2019/10/13 18:54 UTC (24 minutes ago):

KROC 131854Z COR 19013G19KT 10SM FEW140 SCT200 BKN240 19/01 A2991 RMK AO2 SLP133 T01890006

Aviation forecast (TAF) for Greater Rochester International Airport

Retrieved 2019/10/13 18:33 UTC (45 minutes ago):

TAF KROC 131730Z 1318/1418 21011G18KT P6SM SCT250 FM132100 16012KT P6SM SKC FM140900 22008KT P6SM SCT200 FM141500 26010G17KT P6SM BKN040